Time,TemperatureF,DewpointF,PressureIn,WindDirection,WindDirectionDegrees,WindSpeedMPH,WindSpeedGustMPH,Humidity,HourlyPrecipIn,Conditions,Clouds,dailyrainin,SolarRadiationWatts/m^2,SoftwareType,DateUTC
2014-09-20 00:01:00,61.5,47.9,30.16,South,180,0.0,0.0,61,0.00,CLR,,0.00,0.0,WeatherDisplay:10.37,2014-09-20 04:01:00,
2014-09-20 00:06:00,61.5,47.9,30.16,South,180,0.0,0.0,61,0.00,CLR,,0.00,0.0,WeatherDisplay:10.37,2014-09-20 04:06:00,
2014-09-20 00:11:00,61.2,48.0,30.16,South,180,0.0,0.0,62,0.00,CLR,,0.00,0.0,WeatherDisplay:10.37,2014-09-20 04:11:00,
2014-09-20 00:16:00,61.0,47.9,30.16,South,180,0.0,0.0,62,0.00,CLR,,0.00,0.0,WeatherDisplay:10.37,2014-09-20 04:16:00,
2014-09-20 00:21:00,60.8,48.1,30.15,South,180,0.0,0.0,63,0.00,CLR,,0.00,0.0,WeatherDisplay:10.37,2014-09-20 04:21:00,
2014-09-20 00:26:00,60.4,47.8,30.16,South,180,0.0,0.0,63,0.00,CLR,,0.00,0.0,WeatherDisplay:10.37,2014-09-20 04:26:00,
2014-09-20 00:31:00,60.3,48.0,30.16,South,180,0.0,0.0,64,0.00,CLR,,0.00,0.0,WeatherDisplay:10.37,2014-09-20 04:31:00,
2014-09-20 00:36:00,60.4,48.2,30.16,South,180,0.0,0.0,64,0.00,CLR,,0.00,0.0,WeatherDisplay:10.37,2014-09-20 04:36:00,
2014-09-20 00:41:00,60.6,48.8,30.16,SW,225,0.0,0.0,65,0.00,CLR,,0.00,0.0,WeatherDisplay:10.37,2014-09-20 04:41:00,
2014-09-20 00:46:00,60.6,48.8,30.15,SE,135,0.0,0.0,65,0.00,CLR,,0.00,0.0,WeatherDisplay:10.37,2014-09-20 04:46:00,
2014-09-20 00:51:00,60.6,48.8,30.15,SE,135,1.2,0.0,65,0.00,CLR,,0.00,0.0,WeatherDisplay:10.37,2014-09-20 04:51:00,
2014-09-20 00:56:00,60.6,48.8,30.15,SE,135,0.0,0.0,65,0.00,CLR,,0.00,0.0,WeatherDisplay:10.37,2014-09-20 04:56:00,
2014-09-20 01:01:00,60.6,48.8,30.15,SE,135,0.0,0.0,65,0.00,CLR,,0.00,0.0,WeatherDisplay:10.37,2014-09-20 05:01:00,
2014-09-20 01:06:00,60.6,48.8,30.15,SE,135,0.0,0.0,65,0.00,CLR,,0.00,0.0,WeatherDisplay:10.37,2014-09-20 05:06:00,
2014-09-20 01:11:00,60.6,49.2,30.15,SE,135,0.0,0.0,66,0.00,CLR,,0.00,0.0,WeatherDisplay:10.37,2014-09-20 05:11:00,
2014-09-20 01:16:00,60.4,48.6,30.15,SE,135,0.0,0.0,65,0.00,CLR,,0.00,0.0,WeatherDisplay:10.37,2014-09-20 05:16:00,
2014-09-20 01:21:00,60.3,48.9,30.15,SE,135,0.0,0.0,66,0.00,CLR,,0.00,0.0,WeatherDisplay:10.37,2014-09-20 05:21:00,
2014-09-20 01:26:00,60.1,49.1,30.14,SE,135,0.0,0.0,67,0.00,CLR,,0.00,0.0,WeatherDisplay:10.37,2014-09-20 05:26:00,
2014-09-20 01:31:00,59.9,49.3,30.14,WSW,248,1.6,0.0,68,0.00,CLR,,0.00,0.0,WeatherDisplay:10.37,2014-09-20 05:31:00,
2014-09-20 01:36:00,59.5,49.4,30.14,West,270,1.2,0.0,69,0.00,CLR,,0.00,0.0,WeatherDisplay:10.37,2014-09-20 05:36:00,
2014-09-20 01:41:00,59.4,50.0,30.14,West,270,1.2,0.0,71,0.00,CLR,,0.00,0.0,WeatherDisplay:10.37,2014-09-20 05:41:00,
2014-09-20 01:46:00,59.7,50.7,30.14,SW,225,0.0,0.0,72,0.00,CLR,,0.00,0.0,WeatherDisplay:10.37,2014-09-20 05:46:00,
2014-09-20 01:51:00,59.7,50.3,30.14,SE,135,0.0,0.0,71,0.00,CLR,,0.00,0.0,WeatherDisplay:10.37,2014-09-20 05:51:00,
2014-09-20 01:56:00,59.7,50.3,30.14,South,180,0.0,0.0,71,0.00,CLR,,0.00,0.0,WeatherDisplay:10.37,2014-09-20 05:56:00,
2014-09-20 02:01:00,59.7,50.3,30.14,ESE,112,0.0,0.0,71,0.00,CLR,,0.00,0.0,WeatherDisplay:10.37,2014-09-20 06:01:00,
2014-09-20 02:06:00,59.5,50.1,30.14,West,270,1.2,0.0,71,0.00,CLR,,0.00,0.0,WeatherDisplay:10.37,2014-09-20 06:06:00,
2014-09-20 02:11:00,59.4,50.3,30.14,SE,135,0.0,0.0,72,0.00,CLR,,0.00,0.0,WeatherDisplay:10.37,2014-09-20 06:11:00,
2014-09-20 02:16:00,59.4,50.3,30.15,NW,315,0.0,0.0,72,0.00,CLR,,0.00,0.0,WeatherDisplay:10.37,2014-09-20 06:16:00,
2014-09-20 02:21:00,59.4,50.7,30.14,SSE,158,1.2,0.0,73,0.00,CLR,,0.00,0.0,WeatherDisplay:10.37,2014-09-20 06:21:00,
2014-09-20 02:26:00,59.4,51.1,30.14,SE,135,1.2,0.0,74,0.00,CLR,,0.00,0.0,WeatherDisplay:10.37,2014-09-20 06:26:00,
2014-09-20 02:31:00,59.2,50.9,30.14,South,180,0.0,0.0,74,0.00,CLR,,0.00,0.0,WeatherDisplay:10.37,2014-09-20 06:31:00,
2014-09-20 02:36:00,59.2,51.3,30.14,South,180,1.2,0.0,75,0.00,CLR,,0.00,0.0,WeatherDisplay:10.37,2014-09-20 06:36:00,
2014-09-20 02:41:00,59.4,51.8,30.14,SE,135,1.2,0.0,76,0.00,CLR,,0.00,0.0,WeatherDisplay:10.37,2014-09-20 06:41:00,
2014-09-20 02:46:00,59.4,52.1,30.14,SE,135,1.2,0.0,77,0.00,CLR,,0.00,0.0,WeatherDisplay:10.37,2014-09-20 06:46:00,
2014-09-20 02:51:00,59.4,52.1,30.14,SE,135,1.2,0.0,77,0.00,CLR,,0.00,0.0,WeatherDisplay:10.37,2014-09-20 06:51:00,
2014-09-20 02:56:00,59.2,52.0,30.14,SE,135,2.3,2.3,77,0.00,CLR,,0.00,0.0,WeatherDisplay:10.37,2014-09-20 06:56:00,
2014-09-20 03:01:00,59.0,52.1,30.13,SE,135,1.2,1.2,78,0.00,OVC,,0.00,0.0,WeatherDisplay:10.37,2014-09-20 07:01:00,
2014-09-20 03:06:00,59.0,52.1,30.13,SE,135,1.2,1.2,78,0.00,OVC,,0.00,0.0,WeatherDisplay:10.37,2014-09-20 07:06:00,
2014-09-20 03:11:00,58.8,52.7,30.13,SE,135,1.2,0.0,80,0.00,OVC,,0.00,0.0,WeatherDisplay:10.37,2014-09-20 07:11:00,
2014-09-20 03:16:00,58.6,52.5,30.13,South,180,1.2,0.0,80,0.00,OVC,,0.00,0.0,WeatherDisplay:10.37,2014-09-20 07:16:00,
2014-09-20 03:21:00,58.6,52.8,30.13,SE,135,1.2,0.0,81,0.00,OVC,,0.00,0.0,WeatherDisplay:10.37,2014-09-20 07:21:00,
2014-09-20 03:26:00,58.5,52.6,30.13,South,180,1.2,0.0,81,0.00,OVC,,0.00,0.0,WeatherDisplay:10.37,2014-09-20 07:26:00,
2014-09-20 03:31:00,58.6,53.2,30.14,South,180,3.5,3.5,82,0.00,OVC,,0.00,0.0,WeatherDisplay:10.37,2014-09-20 07:31:00,
2014-09-20 03:36:00,59.0,53.5,30.14,SE,135,1.2,0.0,82,0.00,OVC,,0.00,0.0,WeatherDisplay:10.37,2014-09-20 07:36:00,
2014-09-20 03:41:00,59.2,53.4,30.13,South,180,2.3,0.0,81,0.00,OVC,,0.00,0.0,WeatherDisplay:10.37,2014-09-20 07:41:00,
2014-09-20 03:46:00,59.2,53.4,30.13,South,180,1.2,1.2,81,0.00,OVC,,0.00,0.0,WeatherDisplay:10.37,2014-09-20 07:46:00,
2014-09-20 03:51:00,59.2,53.4,30.13,SE,135,0.0,0.0,81,0.00,OVC,,0.00,0.0,WeatherDisplay:10.37,2014-09-20 07:51:00,
2014-09-20 03:56:00,59.0,53.2,30.13,SW,225,1.2,0.0,81,0.00,OVC,,0.00,0.0,WeatherDisplay:10.37,2014-09-20 07:56:00,
2014-09-20 04:01:00,59.2,53.4,30.13,South,180,1.2,0.0,81,0.00,OVC,,0.00,0.0,WeatherDisplay:10.37,2014-09-20 08:01:00,
2014-09-20 04:06:00,59.2,53.4,30.13,South,180,1.2,0.0,81,0.00,OVC,,0.00,0.0,WeatherDisplay:10.37,2014-09-20 08:06:00,
2014-09-20 04:11:00,58.8,53.3,30.13,South,180,1.2,0.0,82,0.00,OVC,,0.00,0.0,WeatherDisplay:10.37,2014-09-20 08:11:00,
2014-09-20 04:16:00,58.6,53.5,30.13,South,180,1.2,0.0,83,0.00,OVC,,0.00,0.0,WeatherDisplay:10.37,2014-09-20 08:16:00,
2014-09-20 04:21:00,58.5,53.3,30.13,SE,135,1.2,0.0,83,0.00,OVC,,0.00,0.0,WeatherDisplay:10.37,2014-09-20 08:21:00,
2014-09-20 04:26:00,58.3,53.5,30.13,East,90,1.2,0.0,84,0.00,OVC,,0.00,0.0,WeatherDisplay:10.37,2014-09-20 08:26:00,
2014-09-20 04:31:00,58.3,54.1,30.13,SE,135,1.2,0.0,86,0.00,OVC,,0.00,0.0,WeatherDisplay:10.37,2014-09-20 08:31:00,
2014-09-20 04:36:00,58.5,54.3,30.13,South,180,1.2,0.0,86,0.00,OVC,,0.00,0.0,WeatherDisplay:10.37,2014-09-20 08:36:00,
2014-09-20 04:41:00,58.5,54.6,30.13,SE,135,1.2,0.0,87,0.00,OVC,,0.00,0.0,WeatherDisplay:10.37,2014-09-20 08:41:00,
2014-09-20 04:46:00,58.5,54.6,30.13,SE,135,1.2,0.0,87,0.00,OVC,,0.00,0.0,WeatherDisplay:10.37,2014-09-20 08:46:00,
2014-09-20 04:51:00,58.6,55.4,30.14,SE,135,3.5,3.5,89,0.00,OVC,,0.00,0.0,WeatherDisplay:10.37,2014-09-20 08:51:00,
2014-09-20 04:56:00,58.8,55.6,30.14,SE,135,1.2,0.0,89,0.00,OVC,,0.00,0.0,WeatherDisplay:10.37,2014-09-20 08:56:00,
2014-09-20 05:01:00,58.8,55.6,30.13,East,90,2.3,0.0,89,0.00,OVC,,0.00,0.0,WeatherDisplay:10.37,2014-09-20 09:01:00,
2014-09-20 05:06:00,58.8,55.3,30.14,South,180,3.5,0.0,88,0.00,OVC,,0.00,0.0,WeatherDisplay:10.37,2014-09-20 09:06:00,
2014-09-20 05:11:00,58.8,55.9,30.14,SW,225,2.3,0.0,90,0.00,OVC,,0.00,0.0,WeatherDisplay:10.37,2014-09-20 09:11:00,
2014-09-20 05:16:00,59.0,56.1,30.14,South,180,3.5,3.5,90,0.00,OVC,,0.00,0.0,WeatherDisplay:10.37,2014-09-20 09:16:00,
2014-09-20 05:21:00,59.0,56.1,30.14,South,180,2.3,2.3,90,0.00,OVC,,0.00,0.0,WeatherDisplay:10.37,2014-09-20 09:21:00,
2014-09-20 05:26:00,59.2,56.2,30.14,South,180,1.2,1.2,90,0.00,OVC,,0.00,0.0,WeatherDisplay:10.37,2014-09-20 09:26:00,
2014-09-20 05:31:00,59.0,56.1,30.14,SE,135,2.3,0.0,90,0.00,OVC,,0.00,0.0,WeatherDisplay:10.37,2014-09-20 09:31:00,
2014-09-20 05:36:00,58.8,55.9,30.14,South,180,2.3,0.0,90,0.00,OVC,,0.00,0.0,WeatherDisplay:10.37,2014-09-20 09:36:00,
2014-09-20 05:41:00,58.6,56.0,30.14,SE,135,2.3,0.0,91,0.00,OVC,,0.00,0.0,WeatherDisplay:10.37,2014-09-20 09:41:00,
2014-09-20 05:46:00,58.6,56.3,30.14,South,180,2.3,2.3,92,0.00,OVC,,0.00,0.0,WeatherDisplay:10.37,2014-09-20 09:46:00,
2014-09-20 05:51:00,58.6,56.6,30.14,SE,135,2.3,0.0,93,0.00,OVC,,0.00,0.0,WeatherDisplay:10.37,2014-09-20 09:51:00,
2014-09-20 05:56:00,58.6,56.9,30.14,South,180,3.5,3.5,94,0.00,OVC,,0.00,0.0,WeatherDisplay:10.37,2014-09-20 09:56:00,
2014-09-20 06:01:00,58.6,57.2,30.14,SE,135,3.5,3.5,95,0.00,OVC,,0.00,0.0,WeatherDisplay:10.37,2014-09-20 10:01:00,
2014-09-20 06:06:00,58.8,57.4,30.15,South,180,2.3,2.3,95,0.00,OVC,,0.00,0.0,WeatherDisplay:10.37,2014-09-20 10:06:00,
2014-09-20 06:11:00,59.0,57.9,30.14,SE,135,1.2,0.0,96,0.00,OVC,,0.00,0.0,WeatherDisplay:10.37,2014-09-20 10:11:00,
2014-09-20 06:16:00,59.0,57.9,30.14,South,180,2.3,2.3,96,0.00,OVC,,0.00,0.0,WeatherDisplay:10.37,2014-09-20 10:16:00,
2014-09-20 06:21:00,59.0,57.9,30.14,SE,135,3.5,3.5,96,0.00,OVC,,0.00,0.0,WeatherDisplay:10.37,2014-09-20 10:21:00,
2014-09-20 06:26:00,59.4,58.5,30.14,SE,135,2.3,2.3,97,0.00,OVC,,0.00,0.0,WeatherDisplay:10.37,2014-09-20 10:26:00,
2014-09-20 06:31:00,59.4,58.5,30.14,South,180,1.2,0.0,97,0.00,OVC,,0.00,0.0,WeatherDisplay:10.37,2014-09-20 10:31:00,
2014-09-20 06:36:00,59.5,58.7,30.14,South,180,2.3,2.3,97,0.00,OVC,,0.00,0.0,WeatherDisplay:10.37,2014-09-20 10:36:00,
2014-09-20 06:41:00,59.9,59.0,30.14,SE,135,1.2,0.0,97,0.00,OVC,,0.00,0.0,WeatherDisplay:10.37,2014-09-20 10:41:00,
2014-09-20 06:46:00,59.9,58.8,30.15,South,180,1.2,0.0,96,0.00,OVC,,0.00,0.0,WeatherDisplay:10.37,2014-09-20 10:46:00,
2014-09-20 06:51:00,60.1,58.9,30.15,East,90,4.6,4.6,96,0.00,OVC,,0.00,0.0,WeatherDisplay:10.37,2014-09-20 10:51:00,
2014-09-20 06:56:00,60.1,58.6,30.15,SE,135,3.5,3.5,95,0.00,OVC,,0.00,0.0,WeatherDisplay:10.37,2014-09-20 10:56:00,
2014-09-20 07:01:00,60.1,58.3,30.15,South,180,2.3,2.3,94,0.00,OVC,,0.00,0.0,WeatherDisplay:10.37,2014-09-20 11:01:00,
2014-09-20 07:06:00,60.1,58.6,30.15,SSE,158,3.5,3.5,95,0.00,OVC,,0.00,0.0,WeatherDisplay:10.37,2014-09-20 11:06:00,
2014-09-20 07:11:00,60.3,58.5,30.16,South,180,2.3,0.0,94,0.00,OVC,,0.00,0.0,WeatherDisplay:10.37,2014-09-20 11:11:00,
2014-09-20 07:16:00,60.3,58.5,30.16,South,180,1.2,1.2,94,0.00,OVC,,0.00,0.0,WeatherDisplay:10.37,2014-09-20 11:16:00,
2014-09-20 07:21:00,60.3,58.5,30.16,SE,135,3.5,3.5,94,0.00,OVC,,0.00,0.0,WeatherDisplay:10.37,2014-09-20 11:21:00,
2014-09-20 07:26:00,60.3,58.5,30.16,SE,135,2.3,2.3,94,0.00,OVC,,0.00,0.0,WeatherDisplay:10.37,2014-09-20 11:26:00,
2014-09-20 07:31:00,60.3,58.5,30.17,SE,135,3.5,3.5,94,0.00,OVC,,0.00,0.0,WeatherDisplay:10.37,2014-09-20 11:31:00,
2014-09-20 07:36:00,60.3,58.2,30.17,SE,135,3.5,3.5,93,0.00,OVC,,0.00,0.0,WeatherDisplay:10.37,2014-09-20 11:36:00,
2014-09-20 07:41:00,60.3,58.2,30.16,South,180,3.5,3.5,93,0.00,OVC,,0.00,0.0,WeatherDisplay:10.37,2014-09-20 11:41:00,
2014-09-20 07:46:00,60.3,58.2,30.17,SE,135,2.3,0.0,93,0.00,OVC,,0.00,0.0,WeatherDisplay:10.37,2014-09-20 11:46:00,
2014-09-20 07:51:00,60.3,58.2,30.17,South,180,3.5,0.0,93,0.00,OVC,,0.00,0.0,WeatherDisplay:10.37,2014-09-20 11:51:00,
2014-09-20 07:56:00,60.4,58.4,30.17,ENE,68,2.2,2.2,93,0.00,OVC,,0.00,0.0,WeatherDisplay:10.37,2014-09-20 11:56:00,
2014-09-20 08:01:00,60.6,58.6,30.17,South,180,2.3,0.0,93,0.00,OVC,,0.00,0.0,WeatherDisplay:10.37,2014-09-20 12:01:00,
2014-09-20 08:06:00,61.2,58.8,30.17,SE,135,1.2,0.0,92,0.00,OVC,,0.00,0.0,WeatherDisplay:10.37,2014-09-20 12:06:00,
2014-09-20 08:11:00,61.5,58.6,30.17,South,180,3.5,0.0,90,0.00,OVC,,0.00,0.0,WeatherDisplay:10.37,2014-09-20 12:11:00,
2014-09-20 08:16:00,61.5,58.6,30.17,SW,225,1.2,1.2,90,0.00,OVC,,0.00,0.0,WeatherDisplay:10.37,2014-09-20 12:16:00,
2014-09-20 08:21:00,61.7,58.4,30.17,South,180,2.3,0.0,89,0.00,OVC,,0.00,0.0,WeatherDisplay:10.37,2014-09-20 12:21:00,
2014-09-20 08:26:00,61.9,58.3,30.17,South,180,2.3,2.3,88,0.00,OVC,,0.00,0.0,WeatherDisplay:10.37,2014-09-20 12:26:00,
2014-09-20 08:31:00,62.2,58.3,30.17,South,180,2.3,2.3,87,0.00,OVC,,0.00,0.0,WeatherDisplay:10.37,2014-09-20 12:31:00,
2014-09-20 08:36:00,63.0,58.0,30.17,SE,135,4.6,4.6,84,0.00,OVC,,0.00,0.0,WeatherDisplay:10.37,2014-09-20 12:36:00,
2014-09-20 08:41:00,63.5,57.9,30.17,East,90,4.6,4.6,82,0.00,OVC,,0.00,0.0,WeatherDisplay:10.37,2014-09-20 12:41:00,
2014-09-20 08:46:00,64.4,58.4,30.17,SW,225,3.5,3.5,81,0.00,OVC,,0.00,0.0,WeatherDisplay:10.37,2014-09-20 12:46:00,
2014-09-20 08:47:00,64.8,58.4,30.17,South,180,3.5,0.0,80,0.00,OVC,,0.00,0.0,WeatherDisplay:10.37,2014-09-20 12:47:00,
2014-09-20 08:52:00,65.8,58.4,30.17,South,180,3.8,3.8,77,0.00,OVC,,0.00,0.0,WeatherDisplay:10.37,2014-09-20 12:52:00,
2014-09-20 08:57:00,66.2,57.7,30.17,SW,225,5.8,5.8,74,0.00,OVC,,0.00,0.0,WeatherDisplay:10.37,2014-09-20 12:57:00,
2014-09-20 09:02:00,66.0,57.1,30.17,SW,225,3.5,3.5,73,0.00,OVC,,0.00,0.0,WeatherDisplay:10.37,2014-09-20 13:02:00,
2014-09-20 09:07:00,66.0,57.1,30.17,SW,225,3.5,3.5,73,0.00,OVC,,0.00,0.0,WeatherDisplay:10.37,2014-09-20 13:07:00,
2014-09-20 09:11:00,66.4,57.5,30.17,South,180,3.5,3.5,73,0.00,OVC,,0.00,0.0,WeatherDisplay:10.37,2014-09-20 13:11:00,
2014-09-20 09:16:00,66.6,57.6,30.17,South,180,6.9,6.9,73,0.00,OVC,,0.00,0.0,WeatherDisplay:10.37,2014-09-20 13:16:00,
2014-09-20 09:21:00,66.4,57.8,30.17,SW,225,3.5,3.5,74,0.00,OVC,,0.00,0.0,WeatherDisplay:10.37,2014-09-20 13:21:00,
2014-09-20 09:26:00,67.3,57.9,30.17,SSW,202,8.1,8.1,72,0.00,OVC,,0.00,0.0,WeatherDisplay:10.37,2014-09-20 13:26:00,
2014-09-20 09:31:00,68.0,57.8,30.17,SW,225,9.2,9.2,70,0.00,OVC,,0.00,0.0,WeatherDisplay:10.37,2014-09-20 13:31:00,
2014-09-20 09:36:00,68.0,57.8,30.17,South,180,12.7,12.7,70,0.00,OVC,,0.00,0.0,WeatherDisplay:10.37,2014-09-20 13:36:00,
2014-09-20 09:41:00,68.0,58.2,30.17,South,180,8.1,8.1,71,0.00,OVC,,0.00,0.0,WeatherDisplay:10.37,2014-09-20 13:41:00,
2014-09-20 09:46:00,68.2,58.4,30.17,NW,315,5.8,5.8,71,0.00,OVC,,0.00,0.0,WeatherDisplay:10.37,2014-09-20 13:46:00,
2014-09-20 09:51:00,68.4,58.2,30.17,South,180,4.6,4.6,70,0.00,OVC,,0.00,0.0,WeatherDisplay:10.37,2014-09-20 13:51:00,
2014-09-20 09:56:00,68.9,58.3,30.17,South,180,10.4,10.4,69,0.00,OVC,,0.00,0.0,WeatherDisplay:10.37,2014-09-20 13:56:00,
2014-09-20 10:01:00,69.6,58.2,30.17,South,180,6.9,6.9,67,0.00,OVC,,0.00,0.0,WeatherDisplay:10.37,2014-09-20 14:01:00,
2014-09-20 10:06:00,69.6,58.2,30.17,South,180,6.9,6.9,67,0.00,OVC,,0.00,0.0,WeatherDisplay:10.37,2014-09-20 14:06:00,
2014-09-20 10:11:00,71.2,58.0,30.17,South,180,10.4,10.4,63,0.00,OVC,,0.00,0.0,WeatherDisplay:10.37,2014-09-20 14:11:00,
2014-09-20 10:17:00,72.0,58.2,30.17,East,90,8.1,8.1,62,0.00,OVC,,0.00,0.0,WeatherDisplay:10.37,2014-09-20 14:17:00,
2014-09-20 10:22:00,73.2,58.5,30.17,NW,315,5.8,5.8,60,0.00,OVC,,0.00,0.0,WeatherDisplay:10.37,2014-09-20 14:22:00,
2014-09-20 10:27:00,73.2,58.0,30.17,SW,225,6.9,6.9,59,0.00,OVC,,0.00,0.0,WeatherDisplay:10.37,2014-09-20 14:27:00,
2014-09-20 10:32:00,72.9,58.2,30.16,South,180,5.8,5.8,60,0.00,OVC,,0.00,0.0,WeatherDisplay:10.37,2014-09-20 14:32:00,
2014-09-20 10:37:00,72.5,57.8,30.16,SW,225,15.0,15.0,60,0.00,OVC,,0.00,0.0,WeatherDisplay:10.37,2014-09-20 14:37:00,
2014-09-20 10:42:00,72.3,58.1,30.16,SW,225,17.3,17.3,61,0.00,OVC,,0.00,0.0,WeatherDisplay:10.37,2014-09-20 14:42:00,
2014-09-20 10:48:00,72.7,58.5,30.16,SW,225,13.8,13.8,61,0.00,OVC,,0.00,0.0,WeatherDisplay:10.37,2014-09-20 14:48:00,
2014-09-20 10:53:00,72.7,58.0,30.16,WNW,292,12.7,12.7,60,0.00,OVC,,0.00,0.0,WeatherDisplay:10.37,2014-09-20 14:53:00,
2014-09-20 10:59:00,72.7,58.0,30.16,West,270,17.3,17.3,60,0.00,OVC,,0.00,0.0,WeatherDisplay:10.37,2014-09-20 14:59:00,
2014-09-20 11:04:00,72.7,58.0,30.16,West,270,12.7,12.7,60,0.00,OVC,,0.00,0.0,WeatherDisplay:10.37,2014-09-20 15:04:00,
2014-09-20 11:09:00,72.7,58.0,30.15,West,270,12.7,12.7,60,0.00,OVC,,0.00,0.0,WeatherDisplay:10.37,2014-09-20 15:09:00,
2014-09-20 11:14:00,74.5,58.7,30.16,West,270,10.7,10.7,58,0.00,OVC,,0.00,0.0,WeatherDisplay:10.37,2014-09-20 15:14:00,
2014-09-20 11:16:00,74.5,58.7,30.15,NW,315,5.8,5.8,58,0.00,OVC,,0.00,0.0,WeatherDisplay:10.37,2014-09-20 15:16:00,
2014-09-20 11:21:00,74.5,58.2,30.16,West,270,15.0,15.0,57,0.00,OVC,,0.00,0.0,WeatherDisplay:10.37,2014-09-20 15:21:00,
2014-09-20 11:27:00,75.0,58.8,30.15,SW,225,12.7,12.7,57,0.00,OVC,,0.00,0.0,WeatherDisplay:10.37,2014-09-20 15:27:00,
2014-09-20 11:32:00,75.0,59.2,30.15,SE,135,8.1,8.1,58,0.00,OVC,,0.00,0.0,WeatherDisplay:10.37,2014-09-20 15:32:00,
2014-09-20 11:37:00,75.7,58.9,30.15,South,180,11.5,11.5,56,0.00,OVC,,0.00,0.0,WeatherDisplay:10.37,2014-09-20 15:37:00,
2014-09-20 11:42:00,75.2,59.4,30.15,West,270,17.3,17.3,58,0.00,OVC,,0.00,0.0,WeatherDisplay:10.37,2014-09-20 15:42:00,
2014-09-20 11:47:00,76.3,59.4,30.15,SW,225,9.2,9.2,56,0.00,OVC,,0.00,0.0,WeatherDisplay:10.37,2014-09-20 15:47:00,
2014-09-20 11:52:00,76.3,59.4,30.14,West,270,12.7,12.7,56,0.00,OVC,,0.00,0.0,WeatherDisplay:10.37,2014-09-20 15:52:00,
2014-09-20 11:57:00,76.1,59.3,30.15,SSW,202,15.9,15.9,56,0.00,OVC,,0.00,0.0,WeatherDisplay:10.37,2014-09-20 15:57:00,
2014-09-20 12:02:00,75.7,59.4,30.15,SW,225,11.5,11.5,57,0.00,CLR,,0.00,0.0,WeatherDisplay:10.37,2014-09-20 16:02:00,
2014-09-20 12:07:00,75.9,59.6,30.15,WSW,248,16.1,16.1,57,0.00,CLR,,0.00,0.0,WeatherDisplay:10.37,2014-09-20 16:07:00,
2014-09-20 12:12:00,76.3,59.4,30.14,NW,315,17.3,17.3,56,0.00,CLR,,0.00,0.0,WeatherDisplay:10.37,2014-09-20 16:12:00,
2014-09-20 12:17:00,76.6,58.7,30.14,SW,225,18.4,18.4,54,0.00,CLR,,0.00,0.0,WeatherDisplay:10.37,2014-09-20 16:17:00,
2014-09-20 12:22:00,76.6,59.3,30.14,SW,225,13.8,13.8,55,0.00,CLR,,0.00,0.0,WeatherDisplay:10.37,2014-09-20 16:22:00,
2014-09-20 12:27:00,76.8,59.9,30.14,South,180,8.1,8.1,56,0.00,CLR,,0.00,0.0,WeatherDisplay:10.37,2014-09-20 16:27:00,
2014-09-20 12:32:00,76.8,59.4,30.14,SW,225,13.8,13.8,55,0.00,CLR,,0.00,0.0,WeatherDisplay:10.37,2014-09-20 16:32:00,
2014-09-20 12:37:00,77.2,59.2,30.14,SW,225,15.0,15.0,54,0.00,CLR,,0.00,0.0,WeatherDisplay:10.37,2014-09-20 16:37:00,
2014-09-20 12:42:00,77.5,60.1,30.14,West,270,13.8,13.8,55,0.00,CLR,,0.00,0.0,WeatherDisplay:10.37,2014-09-20 16:42:00,
2014-09-20 12:47:00,78.3,59.7,30.14,West,270,9.2,9.2,53,0.00,CLR,,0.00,0.0,WeatherDisplay:10.37,2014-09-20 16:47:00,
2014-09-20 12:52:00,77.7,59.2,30.14,NW,315,12.7,12.7,53,0.00,CLR,,0.00,0.0,WeatherDisplay:10.37,2014-09-20 16:52:00,
2014-09-20 12:57:00,78.4,59.4,30.13,SSE,158,12.7,12.7,52,0.00,CLR,,0.00,0.0,WeatherDisplay:10.37,2014-09-20 16:57:00,
2014-09-20 13:02:00,78.6,59.5,30.13,SW,225,12.7,12.7,52,0.00,CLR,,0.00,0.0,WeatherDisplay:10.37,2014-09-20 17:02:00,
2014-09-20 13:07:00,78.6,59.5,30.13,South,180,11.5,11.5,52,0.00,CLR,,0.00,0.0,WeatherDisplay:10.37,2014-09-20 17:07:00,
2014-09-20 13:12:00,79.2,59.5,30.13,West,270,13.8,13.8,51,0.00,CLR,,0.00,0.0,WeatherDisplay:10.37,2014-09-20 17:12:00,
2014-09-20 13:17:00,79.2,60.0,30.13,WSW,248,8.1,8.1,52,0.00,CLR,,0.00,0.0,WeatherDisplay:10.37,2014-09-20 17:17:00,
2014-09-20 13:22:00,79.2,60.0,30.13,WSW,248,8.1,8.1,52,0.00,CLR,,0.00,0.0,WeatherDisplay:10.37,2014-09-20 17:22:00,
2014-09-20 13:27:00,78.4,59.9,30.13,SSW,202,15.0,15.0,53,0.00,CLR,,0.00,0.0,WeatherDisplay:10.37,2014-09-20 17:27:00,
2014-09-20 13:32:00,79.0,59.3,30.13,SW,225,13.8,13.8,51,0.00,CLR,,0.00,0.0,WeatherDisplay:10.37,2014-09-20 17:32:00,
2014-09-20 13:37:00,78.8,59.1,30.12,WSW,248,17.3,17.3,51,0.00,CLR,,0.00,0.0,WeatherDisplay:10.37,2014-09-20 17:37:00,
2014-09-20 13:42:00,78.6,60.1,30.12,NW,315,10.4,10.4,53,0.00,CLR,,0.00,0.0,WeatherDisplay:10.37,2014-09-20 17:42:00,
2014-09-20 13:47:00,79.3,59.6,30.12,SW,225,15.0,15.0,51,0.00,CLR,,0.00,0.0,WeatherDisplay:10.37,2014-09-20 17:47:00,
2014-09-20 13:52:00,79.3,59.1,30.12,West,270,13.8,13.8,50,0.00,CLR,,0.00,0.0,WeatherDisplay:10.37,2014-09-20 17:52:00,
2014-09-20 13:57:00,78.6,59.0,30.12,NW,315,15.0,15.0,51,0.00,CLR,,0.00,0.0,WeatherDisplay:10.37,2014-09-20 17:57:00,
2014-09-20 14:02:00,78.3,59.2,30.11,SW,225,13.8,13.8,52,0.00,CLR,,0.00,0.0,WeatherDisplay:10.37,2014-09-20 18:02:00,
2014-09-20 14:08:00,78.3,59.7,30.11,SW,225,13.8,13.8,53,0.00,CLR,,0.00,0.0,WeatherDisplay:10.37,2014-09-20 18:08:00,
2014-09-20 14:13:00,78.3,59.7,30.11,SW,225,15.0,15.0,53,0.00,CLR,,0.00,0.0,WeatherDisplay:10.37,2014-09-20 18:13:00,
2014-09-20 14:18:00,78.8,59.7,30.11,SW,225,11.5,11.5,52,0.00,CLR,,0.00,0.0,WeatherDisplay:10.37,2014-09-20 18:18:00,
2014-09-20 14:23:00,78.4,59.4,30.11,NNW,338,13.8,13.8,52,0.00,CLR,,0.00,0.0,WeatherDisplay:10.37,2014-09-20 18:23:00,
2014-09-20 14:28:00,78.1,59.6,30.10,West,270,15.0,15.0,53,0.00,CLR,,0.00,0.0,WeatherDisplay:10.37,2014-09-20 18:28:00,
2014-09-20 14:33:00,78.4,59.9,30.10,SW,225,16.1,16.1,53,0.00,CLR,,0.00,0.0,WeatherDisplay:10.37,2014-09-20 18:33:00,
2014-09-20 14:38:00,79.9,60.1,30.09,NW,315,9.2,9.2,51,0.00,CLR,,0.00,0.0,WeatherDisplay:10.37,2014-09-20 18:38:00,
2014-09-20 14:43:00,80.2,59.3,30.09,North,0,15.0,15.0,49,0.00,CLR,,0.00,0.0,WeatherDisplay:10.37,2014-09-20 18:43:00,
2014-09-20 14:48:00,79.9,59.6,30.08,NW,315,11.5,11.5,50,0.00,CLR,,0.00,0.0,WeatherDisplay:10.37,2014-09-20 18:48:00,
2014-09-20 14:53:00,80.6,59.1,30.09,SW,225,9.2,9.2,48,0.00,CLR,,0.00,0.0,WeatherDisplay:10.37,2014-09-20 18:53:00,
2014-09-20 14:58:00,81.0,58.8,30.08,SW,225,12.7,12.7,47,0.00,CLR,,0.00,0.0,WeatherDisplay:10.37,2014-09-20 18:58:00,
2014-09-20 15:03:00,80.8,58.7,30.09,WSW,248,15.0,15.0,47,0.00,CLR,,0.00,0.0,WeatherDisplay:10.37,2014-09-20 19:03:00,
2014-09-20 15:09:00,80.4,58.9,30.08,NW,315,13.0,13.0,48,0.00,CLR,,0.00,0.0,WeatherDisplay:10.37,2014-09-20 19:09:00,
2014-09-20 15:14:00,80.6,58.5,30.08,SW,225,13.8,13.8,47,0.00,CLR,,0.00,0.0,WeatherDisplay:10.37,2014-09-20 19:14:00,
2014-09-20 15:19:00,80.1,58.6,30.08,South,180,9.2,9.2,48,0.00,CLR,,0.00,0.0,WeatherDisplay:10.37,2014-09-20 19:19:00,
2014-09-20 15:24:00,80.8,58.1,30.08,West,270,17.3,17.3,46,0.00,CLR,,0.00,0.0,WeatherDisplay:10.37,2014-09-20 19:24:00,
2014-09-20 15:29:00,81.0,58.2,30.07,SW,225,10.4,10.4,46,0.00,CLR,,0.00,0.0,WeatherDisplay:10.37,2014-09-20 19:29:00,
2014-09-20 15:34:00,81.5,58.1,30.06,South,180,9.2,9.2,45,0.00,CLR,,0.00,0.0,WeatherDisplay:10.37,2014-09-20 19:34:00,
2014-09-20 15:39:00,81.7,58.3,30.06,SW,225,10.4,10.4,45,0.00,CLR,,0.00,0.0,WeatherDisplay:10.37,2014-09-20 19:39:00,
2014-09-20 15:44:00,82.2,58.8,30.06,SW,225,9.2,9.2,45,0.00,CLR,,0.00,0.0,WeatherDisplay:10.37,2014-09-20 19:44:00,
2014-09-20 15:45:00,82.4,58.3,30.06,West,270,9.2,9.2,44,0.00,CLR,,0.00,0.0,WeatherDisplay:10.37,2014-09-20 19:45:00,
2014-09-20 15:51:00,82.2,58.1,30.06,South,180,8.1,8.1,44,0.00,CLR,,0.00,0.0,WeatherDisplay:10.37,2014-09-20 19:51:00,
2014-09-20 15:56:00,82.8,59.3,30.06,South,180,5.8,5.8,45,0.00,CLR,,0.00,0.0,WeatherDisplay:10.37,2014-09-20 19:56:00,
2014-09-20 16:01:00,83.7,58.8,30.06,West,270,8.1,8.1,43,0.00,CLR,,0.00,0.0,WeatherDisplay:10.37,2014-09-20 20:01:00,
2014-09-20 16:06:00,83.5,57.3,30.05,South,180,10.4,10.4,41,0.00,CLR,,0.00,0.0,WeatherDisplay:10.37,2014-09-20 20:06:00,
2014-09-20 16:11:00,82.4,58.3,30.05,NW,315,6.9,6.9,44,0.00,CLR,,0.00,0.0,WeatherDisplay:10.37,2014-09-20 20:11:00,
2014-09-20 16:16:00,82.8,57.3,30.05,West,270,3.5,3.5,42,0.00,CLR,,0.00,0.0,WeatherDisplay:10.37,2014-09-20 20:16:00,
2014-09-20 16:21:00,82.8,57.3,30.05,West,270,3.5,3.5,42,0.00,CLR,,0.00,0.0,WeatherDisplay:10.37,2014-09-20 20:21:00,
2014-09-20 16:26:00,82.9,57.5,30.05,SW,225,9.2,9.2,42,0.00,CLR,,0.00,0.0,WeatherDisplay:10.37,2014-09-20 20:26:00,
2014-09-20 16:31:00,82.6,57.8,30.04,South,180,5.8,5.8,43,0.00,CLR,,0.00,0.0,WeatherDisplay:10.37,2014-09-20 20:31:00,
2014-09-20 16:36:00,81.7,57.6,30.04,NW,315,6.9,6.9,44,0.00,CLR,,0.00,0.0,WeatherDisplay:10.37,2014-09-20 20:36:00,
2014-09-20 16:41:00,81.3,56.7,30.04,SW,225,12.7,12.7,43,0.00,CLR,,0.00,0.0,WeatherDisplay:10.37,2014-09-20 20:41:00,
2014-09-20 16:47:00,82.2,56.2,30.04,WSW,248,15.0,15.0,41,0.00,CLR,,0.00,0.0,WeatherDisplay:10.37,2014-09-20 20:47:00,
2014-09-20 16:52:00,82.9,56.8,30.03,ESE,112,8.1,8.1,41,0.00,CLR,,0.00,0.0,WeatherDisplay:10.37,2014-09-20 20:52:00,
2014-09-20 16:57:00,83.7,56.1,30.04,SE,135,4.6,4.6,39,0.00,CLR,,0.00,0.0,WeatherDisplay:10.37,2014-09-20 20:57:00,
2014-09-20 17:01:00,82.9,56.8,30.03,South,180,4.6,4.6,41,0.00,CLR,,0.00,0.0,WeatherDisplay:10.37,2014-09-20 21:01:00,
2014-09-20 17:06:00,82.0,56.0,30.03,NW,315,9.2,9.2,41,0.00,CLR,,0.00,0.0,WeatherDisplay:10.37,2014-09-20 21:06:00,
2014-09-20 17:11:00,81.3,57.3,30.03,SW,225,6.9,6.9,44,0.00,CLR,,0.00,0.0,WeatherDisplay:10.37,2014-09-20 21:11:00,
2014-09-20 17:16:00,82.8,57.3,30.03,SW,225,6.9,6.9,42,0.00,CLR,,0.00,0.0,WeatherDisplay:10.37,2014-09-20 21:16:00,
2014-09-20 17:21:00,83.1,55.6,30.03,West,270,10.4,10.4,39,0.00,CLR,,0.00,0.0,WeatherDisplay:10.37,2014-09-20 21:21:00,
2014-09-20 17:26:00,81.1,55.9,30.03,SSE,158,12.7,12.7,42,0.00,CLR,,0.00,0.0,WeatherDisplay:10.37,2014-09-20 21:26:00,
2014-09-20 17:31:00,81.5,56.8,30.03,NW,315,5.8,5.8,43,0.00,CLR,,0.00,0.0,WeatherDisplay:10.37,2014-09-20 21:31:00,
2014-09-20 17:36:00,82.6,55.1,30.02,West,270,15.0,15.0,39,0.00,CLR,,0.00,0.0,WeatherDisplay:10.37,2014-09-20 21:36:00,
2014-09-20 17:41:00,82.8,56.0,30.02,NE,45,8.1,8.1,40,0.00,CLR,,0.00,0.0,WeatherDisplay:10.37,2014-09-20 21:41:00,
2014-09-20 17:46:00,82.4,57.0,30.02,South,180,11.5,11.5,42,0.00,CLR,,0.00,0.0,WeatherDisplay:10.37,2014-09-20 21:46:00,
2014-09-20 17:51:00,82.0,56.7,30.02,South,180,10.4,10.4,42,0.00,CLR,,0.00,0.0,WeatherDisplay:10.37,2014-09-20 21:51:00,
2014-09-20 17:56:00,81.1,57.2,30.02,South,180,5.8,5.8,44,0.00,CLR,,0.00,0.0,WeatherDisplay:10.37,2014-09-20 21:56:00,
2014-09-20 18:01:00,81.0,57.6,30.02,West,270,4.6,0.0,45,0.00,CLR,,0.00,0.0,WeatherDisplay:10.37,2014-09-20 22:01:00,
2014-09-20 18:06:00,81.9,57.2,30.02,South,180,8.1,8.1,43,0.00,CLR,,0.00,0.0,WeatherDisplay:10.37,2014-09-20 22:06:00,
2014-09-20 18:11:00,81.9,57.2,30.01,South,180,6.9,6.9,43,0.00,CLR,,0.00,0.0,WeatherDisplay:10.37,2014-09-20 22:11:00,
2014-09-20 18:16:00,81.9,57.8,30.01,South,180,2.3,0.0,44,0.00,CLR,,0.00,0.0,WeatherDisplay:10.37,2014-09-20 22:16:00,
2014-09-20 18:21:00,81.9,57.8,30.01,South,180,2.3,0.0,44,0.00,CLR,,0.00,0.0,WeatherDisplay:10.37,2014-09-20 22:21:00,
2014-09-20 18:26:00,82.4,58.3,30.01,SW,225,5.8,5.8,44,0.00,CLR,,0.00,0.0,WeatherDisplay:10.37,2014-09-20 22:26:00,
2014-09-20 18:31:00,82.4,58.3,30.00,WNW,292,9.2,9.2,44,0.00,CLR,,0.00,0.0,WeatherDisplay:10.37,2014-09-20 22:31:00,
2014-09-20 18:35:00,82.0,58.0,30.00,SW,225,8.1,8.1,44,0.00,CLR,,0.00,0.0,WeatherDisplay:10.37,2014-09-20 22:35:00,
2014-09-20 18:40:00,81.7,58.3,30.00,South,180,3.5,3.5,45,0.00,CLR,,0.00,0.0,WeatherDisplay:10.37,2014-09-20 22:40:00,
2014-09-20 18:45:00,81.1,57.8,30.00,South,174,2.0,10.0,45,0.00,CLR,,0.00,0.0,WeatherDisplay:10.37,2014-09-20 22:45:00,
2014-09-20 18:50:00,80.6,58.5,30.00,South,174,0.0,6.0,47,0.00,CLR,,0.00,0.0,WeatherDisplay:10.37,2014-09-20 22:50:00,
2014-09-20 18:55:00,80.8,58.7,30.00,South,178,1.0,5.0,47,0.00,CLR,,0.00,0.0,WeatherDisplay:10.37,2014-09-20 22:55:00,
2014-09-20 18:59:00,80.4,58.3,30.00,SW,225,4.6,4.6,47,0.00,CLR,,0.00,0.0,WeatherDisplay:10.37,2014-09-20 22:59:00,
2014-09-20 19:04:00,79.3,57.9,30.00,SW,225,5.8,5.8,48,0.00,CLR,,0.00,0.0,WeatherDisplay:10.37,2014-09-20 23:04:00,
2014-09-20 19:09:00,78.3,58.1,30.00,NE,45,4.6,0.0,50,0.00,CLR,,0.00,0.0,WeatherDisplay:10.37,2014-09-20 23:09:00,
2014-09-20 19:14:00,77.5,58.5,30.01,NW,315,3.5,3.5,52,0.00,CLR,,0.00,0.0,WeatherDisplay:10.37,2014-09-20 23:14:00,
2014-09-20 19:19:00,77.2,58.2,30.00,South,180,4.6,4.6,52,0.00,CLR,,0.00,0.0,WeatherDisplay:10.37,2014-09-20 23:19:00,
2014-09-20 19:22:00,77.2,58.2,30.00,South,180,4.6,4.6,52,0.00,CLR,,0.00,0.0,WeatherDisplay:10.37,2014-09-20 23:22:00,
2014-09-20 19:27:00,75.7,58.4,30.01,North,0,1.2,0.0,55,0.00,CLR,,0.00,0.0,WeatherDisplay:10.37,2014-09-20 23:27:00,
2014-09-20 19:32:00,75.2,58.9,30.01,SE,135,3.5,0.0,57,0.00,CLR,,0.00,0.0,WeatherDisplay:10.37,2014-09-20 23:32:00,
2014-09-20 19:37:00,74.8,58.6,30.02,North,0,2.3,0.0,57,0.00,CLR,,0.00,0.0,WeatherDisplay:10.37,2014-09-20 23:37:00,
2014-09-20 19:43:00,74.5,58.7,30.02,SW,225,3.5,0.0,58,0.00,CLR,,0.00,0.0,WeatherDisplay:10.37,2014-09-20 23:43:00,
2014-09-20 19:48:00,74.1,58.9,30.02,SW,225,4.5,4.5,59,0.00,CLR,,0.00,0.0,WeatherDisplay:10.37,2014-09-20 23:48:00,
2014-09-20 19:53:00,73.9,58.7,30.03,SW,225,1.2,0.0,59,0.00,CLR,,0.00,0.0,WeatherDisplay:10.37,2014-09-20 23:53:00,
2014-09-20 19:58:00,73.8,59.0,30.03,SW,225,2.3,0.0,60,0.00,CLR,,0.00,0.0,WeatherDisplay:10.37,2014-09-20 23:58:00,
2014-09-20 20:03:00,73.6,58.8,30.03,SE,135,1.2,0.0,60,0.00,CLR,,0.00,0.0,WeatherDisplay:10.37,2014-09-21 00:03:00,
2014-09-20 20:08:00,73.0,58.8,30.03,SW,225,1.2,1.6,61,0.00,CLR,,0.00,0.0,WeatherDisplay:10.37,2014-09-21 00:08:00,
2014-09-20 20:13:00,72.9,59.1,30.03,SSW,202,1.2,0.0,62,0.00,CLR,,0.00,0.0,WeatherDisplay:10.37,2014-09-21 00:13:00,
2014-09-20 20:18:00,72.7,59.4,30.03,South,180,2.3,0.0,63,0.00,CLR,,0.00,0.0,WeatherDisplay:10.37,2014-09-21 00:18:00,
2014-09-20 20:23:00,72.5,59.2,30.04,West,270,1.2,0.0,63,0.00,CLR,,0.00,0.0,WeatherDisplay:10.37,2014-09-21 00:23:00,
2014-09-20 20:28:00,72.5,59.2,30.04,SSE,158,5.8,5.8,63,0.00,CLR,,0.00,0.0,WeatherDisplay:10.37,2014-09-21 00:28:00,
2014-09-20 20:33:00,72.5,59.2,30.04,South,180,2.3,2.3,63,0.00,CLR,,0.00,0.0,WeatherDisplay:10.37,2014-09-21 00:33:00,
2014-09-20 20:38:00,72.3,59.0,30.05,WNW,292,2.3,0.0,63,0.00,CLR,,0.00,0.0,WeatherDisplay:10.37,2014-09-21 00:38:00,
2014-09-20 20:43:00,72.3,59.5,30.04,SE,135,3.5,3.5,64,0.00,CLR,,0.00,0.0,WeatherDisplay:10.37,2014-09-21 00:43:00,
2014-09-20 20:48:00,72.0,59.1,30.04,South,180,1.2,0.0,64,0.00,CLR,,0.00,0.0,WeatherDisplay:10.37,2014-09-21 00:48:00,
2014-09-20 20:53:00,71.6,59.2,30.05,SW,225,1.2,0.0,65,0.00,CLR,,0.00,0.0,WeatherDisplay:10.37,2014-09-21 00:53:00,